sensor_id;sensor_type;location;lat;lon;timestamp;temperature;humidity
37456;DHT22;23316;50.718;7.328;2023-06-14T00:01:47;22.30;35.00
37456;DHT22;23316;50.718;7.328;2023-06-14T00:04:14;22.30;35.20
37456;DHT22;23316;50.718;7.328;2023-06-14T00:06:44;22.20;35.30
37456;DHT22;23316;50.718;7.328;2023-06-14T00:09:12;22.20;35.40
37456;DHT22;23316;50.718;7.328;2023-06-14T00:11:40;22.20;35.30
37456;DHT22;23316;50.718;7.328;2023-06-14T00:14:07;22.10;35.30
37456;DHT22;23316;50.718;7.328;2023-06-14T00:16:35;22.10;35.40
37456;DHT22;23316;50.718;7.328;2023-06-14T00:19:03;22.10;35.40
37456;DHT22;23316;50.718;7.328;2023-06-14T00:21:30;22.00;35.40
37456;DHT22;23316;50.718;7.328;2023-06-14T00:23:59;22.00;35.40
37456;DHT22;23316;50.718;7.328;2023-06-14T00:26:26;22.00;35.60
37456;DHT22;23316;50.718;7.328;2023-06-14T00:28:54;21.90;35.50
37456;DHT22;23316;50.718;7.328;2023-06-14T00:31:22;21.90;35.40
37456;DHT22;23316;50.718;7.328;2023-06-14T00:33:49;21.90;35.50
37456;DHT22;23316;50.718;7.328;2023-06-14T00:36:17;21.90;35.60
37456;DHT22;23316;50.718;7.328;2023-06-14T00:38:44;21.90;35.60
37456;DHT22;23316;50.718;7.328;2023-06-14T00:41:12;21.90;35.60
37456;DHT22;23316;50.718;7.328;2023-06-14T00:43:40;21.80;35.60
37456;DHT22;23316;50.718;7.328;2023-06-14T00:46:07;21.80;35.50
37456;DHT22;23316;50.718;7.328;2023-06-14T00:48:36;21.70;35.60
37456;DHT22;23316;50.718;7.328;2023-06-14T00:51:04;21.70;35.80
37456;DHT22;23316;50.718;7.328;2023-06-14T00:53:31;21.70;35.80
37456;DHT22;23316;50.718;7.328;2023-06-14T00:56:02;21.70;35.90
37456;DHT22;23316;50.718;7.328;2023-06-14T00:58:31;21.70;36.00
37456;DHT22;23316;50.718;7.328;2023-06-14T01:00:59;21.60;36.00
37456;DHT22;23316;50.718;7.328;2023-06-14T01:03:26;21.60;36.00
37456;DHT22;23316;50.718;7.328;2023-06-14T01:05:59;21.60;36.10
37456;DHT22;23316;50.718;7.328;2023-06-14T01:08:36;21.60;36.10
37456;DHT22;23316;50.718;7.328;2023-06-14T01:11:13;21.50;36.20
37456;DHT22;23316;50.718;7.328;2023-06-14T01:13:46;21.50;36.20
37456;DHT22;23316;50.718;7.328;2023-06-14T01:16:14;21.50;36.30
37456;DHT22;23316;50.718;7.328;2023-06-14T01:18:42;21.50;36.30
37456;DHT22;23316;50.718;7.328;2023-06-14T01:21:23;21.40;36.30
37456;DHT22;23316;50.718;7.328;2023-06-14T01:23:53;21.40;36.20
37456;DHT22;23316;50.718;7.328;2023-06-14T01:26:21;21.30;36.60
37456;DHT22;23316;50.718;7.328;2023-06-14T01:28:49;21.30;36.10
37456;DHT22;23316;50.718;7.328;2023-06-14T01:31:22;21.40;36.20
37456;DHT22;23316;50.718;7.328;2023-06-14T01:33:50;21.30;36.40
37456;DHT22;23316;50.718;7.328;2023-06-14T01:36:19;21.20;36.40
37456;DHT22;23316;50.718;7.328;2023-06-14T01:38:47;21.20;36.40
37456;DHT22;23316;50.718;7.328;2023-06-14T01:41:18;21.20;36.40
37456;DHT22;23316;50.718;7.328;2023-06-14T01:43:47;21.20;36.40
37456;DHT22;23316;50.718;7.328;2023-06-14T01:46:16;21.20;36.40
37456;DHT22;23316;50.718;7.328;2023-06-14T01:48:43;21.20;36.50
37456;DHT22;23316;50.718;7.328;2023-06-14T01:51:11;21.10;36.40
37456;DHT22;23316;50.718;7.328;2023-06-14T01:53:38;21.10;36.50
37456;DHT22;23316;50.718;7.328;2023-06-14T01:56:06;21.10;37.00
37456;DHT22;23316;50.718;7.328;2023-06-14T01:58:35;21.00;36.50
37456;DHT22;23316;50.718;7.328;2023-06-14T02:01:02;21.00;36.60
37456;DHT22;23316;50.718;7.328;2023-06-14T02:03:31;21.00;36.70
37456;DHT22;23316;50.718;7.328;2023-06-14T02:05:58;21.00;36.60
37456;DHT22;23316;50.718;7.328;2023-06-14T02:08:25;21.00;36.80
37456;DHT22;23316;50.718;7.328;2023-06-14T02:10:53;21.00;36.70
37456;DHT22;23316;50.718;7.328;2023-06-14T02:13:41;21.00;36.70
37456;DHT22;23316;50.718;7.328;2023-06-14T02:16:09;20.90;36.70
37456;DHT22;23316;50.718;7.328;2023-06-14T02:18:37;21.00;36.80
37456;DHT22;23316;50.718;7.328;2023-06-14T02:21:04;20.90;36.80
37456;DHT22;23316;50.718;7.328;2023-06-14T02:23:31;20.90;36.90
37456;DHT22;23316;50.718;7.328;2023-06-14T02:25:59;20.90;36.90
37456;DHT22;23316;50.718;7.328;2023-06-14T02:28:26;20.90;36.80
37456;DHT22;23316;50.718;7.328;2023-06-14T02:30:54;20.90;36.90
37456;DHT22;23316;50.718;7.328;2023-06-14T02:33:23;20.90;36.90
37456;DHT22;23316;50.718;7.328;2023-06-14T02:35:51;20.90;36.90
37456;DHT22;23316;50.718;7.328;2023-06-14T02:38:18;20.90;36.90
37456;DHT22;23316;50.718;7.328;2023-06-14T02:40:46;20.90;37.10
37456;DHT22;23316;50.718;7.328;2023-06-14T02:43:14;20.90;36.90
37456;DHT22;23316;50.718;7.328;2023-06-14T02:45:43;20.80;36.80
37456;DHT22;23316;50.718;7.328;2023-06-14T02:48:10;20.80;36.90
37456;DHT22;23316;50.718;7.328;2023-06-14T02:50:39;20.80;37.10
37456;DHT22;23316;50.718;7.328;2023-06-14T02:53:06;20.80;37.20
37456;DHT22;23316;50.718;7.328;2023-06-14T02:55:34;20.80;37.20
37456;DHT22;23316;50.718;7.328;2023-06-14T02:58:06;20.70;37.10
37456;DHT22;23316;50.718;7.328;2023-06-14T03:00:33;20.70;37.10
37456;DHT22;23316;50.718;7.328;2023-06-14T03:03:01;20.70;37.00
37456;DHT22;23316;50.718;7.328;2023-06-14T03:05:28;20.70;37.10
37456;DHT22;23316;50.718;7.328;2023-06-14T03:07:57;20.70;37.30
37456;DHT22;23316;50.718;7.328;2023-06-14T03:10:24;20.60;37.30
37456;DHT22;23316;50.718;7.328;2023-06-14T03:12:55;20.60;37.20
37456;DHT22;23316;50.718;7.328;2023-06-14T03:15:22;20.60;37.30
37456;DHT22;23316;50.718;7.328;2023-06-14T03:17:50;20.60;37.30
37456;DHT22;23316;50.718;7.328;2023-06-14T03:20:19;20.50;37.40
37456;DHT22;23316;50.718;7.328;2023-06-14T03:22:46;20.50;37.50
37456;DHT22;23316;50.718;7.328;2023-06-14T03:25:16;20.40;37.40
37456;DHT22;23316;50.718;7.328;2023-06-14T03:27:44;20.40;37.50
37456;DHT22;23316;50.718;7.328;2023-06-14T03:30:12;20.40;37.50
37456;DHT22;23316;50.718;7.328;2023-06-14T03:32:39;20.30;37.40
37456;DHT22;23316;50.718;7.328;2023-06-14T03:35:12;20.30;37.50
37456;DHT22;23316;50.718;7.328;2023-06-14T03:37:43;20.30;37.50
37456;DHT22;23316;50.718;7.328;2023-06-14T03:40:12;20.20;37.70
37456;DHT22;23316;50.718;7.328;2023-06-14T03:42:40;20.20;37.70
37456;DHT22;23316;50.718;7.328;2023-06-14T03:45:08;20.20;37.90
37456;DHT22;23316;50.718;7.328;2023-06-14T03:47:36;20.20;38.00
37456;DHT22;23316;50.718;7.328;2023-06-14T03:50:04;20.10;38.10
37456;DHT22;23316;50.718;7.328;2023-06-14T03:52:31;20.10;38.20
37456;DHT22;23316;50.718;7.328;2023-06-14T03:54:59;20.10;38.40
37456;DHT22;23316;50.718;7.328;2023-06-14T03:57:26;20.00;38.40
37456;DHT22;23316;50.718;7.328;2023-06-14T03:59:55;20.00;38.40
37456;DHT22;23316;50.718;7.328;2023-06-14T04:02:23;20.00;38.30
37456;DHT22;23316;50.718;7.328;2023-06-14T04:04:51;20.00;38.40
37456;DHT22;23316;50.718;7.328;2023-06-14T04:07:20;20.00;38.50
37456;DHT22;23316;50.718;7.328;2023-06-14T04:09:48;20.00;38.80
37456;DHT22;23316;50.718;7.328;2023-06-14T04:12:16;19.90;38.80
37456;DHT22;23316;50.718;7.328;2023-06-14T04:14:43;19.90;38.90
37456;DHT22;23316;50.718;7.328;2023-06-14T04:17:12;19.90;39.10
37456;DHT22;23316;50.718;7.328;2023-06-14T04:19:39;19.90;39.30
37456;DHT22;23316;50.718;7.328;2023-06-14T04:22:06;19.90;39.50
37456;DHT22;23316;50.718;7.328;2023-06-14T04:24:34;19.90;39.60
37456;DHT22;23316;50.718;7.328;2023-06-14T04:27:02;19.80;39.80
37456;DHT22;23316;50.718;7.328;2023-06-14T04:29:29;19.80;39.80
37456;DHT22;23316;50.718;7.328;2023-06-14T04:31:57;19.80;40.00
37456;DHT22;23316;50.718;7.328;2023-06-14T04:34:28;19.80;39.90
37456;DHT22;23316;50.718;7.328;2023-06-14T04:36:57;19.80;39.90
37456;DHT22;23316;50.718;7.328;2023-06-14T04:39:25;19.80;39.90
37456;DHT22;23316;50.718;7.328;2023-06-14T04:41:53;19.80;39.90
37456;DHT22;23316;50.718;7.328;2023-06-14T04:44:23;19.80;39.80
37456;DHT22;23316;50.718;7.328;2023-06-14T04:46:56;19.80;39.70
37456;DHT22;23316;50.718;7.328;2023-06-14T04:49:24;19.80;39.80
37456;DHT22;23316;50.718;7.328;2023-06-14T04:51:56;19.70;39.70
37456;DHT22;23316;50.718;7.328;2023-06-14T04:54:25;19.80;39.70
37456;DHT22;23316;50.718;7.328;2023-06-14T04:56:52;19.80;39.80
37456;DHT22;23316;50.718;7.328;2023-06-14T04:59:21;19.80;40.20
37456;DHT22;23316;50.718;7.328;2023-06-14T05:01:49;19.80;40.20
37456;DHT22;23316;50.718;7.328;2023-06-14T05:04:17;19.80;40.80
37456;DHT22;23316;50.718;7.328;2023-06-14T05:06:57;19.80;40.20
37456;DHT22;23316;50.718;7.328;2023-06-14T05:09:24;19.80;40.40
37456;DHT22;23316;50.718;7.328;2023-06-14T05:11:52;19.80;40.40
37456;DHT22;23316;50.718;7.328;2023-06-14T05:14:19;19.80;40.40
37456;DHT22;23316;50.718;7.328;2023-06-14T05:16:48;19.80;40.40
37456;DHT22;23316;50.718;7.328;2023-06-14T05:19:16;19.80;40.50
37456;DHT22;23316;50.718;7.328;2023-06-14T05:21:43;19.90;40.70
37456;DHT22;23316;50.718;7.328;2023-06-14T05:24:13;19.90;41.20
37456;DHT22;23316;50.718;7.328;2023-06-14T05:26:40;19.90;41.50
37456;DHT22;23316;50.718;7.328;2023-06-14T05:29:07;19.90;40.70
37456;DHT22;23316;50.718;7.328;2023-06-14T05:31:35;19.90;40.60
37456;DHT22;23316;50.718;7.328;2023-06-14T05:34:02;19.90;40.70
37456;DHT22;23316;50.718;7.328;2023-06-14T05:36:30;19.90;40.70
37456;DHT22;23316;50.718;7.328;2023-06-14T05:38:57;20.00;40.70
37456;DHT22;23316;50.718;7.328;2023-06-14T05:41:27;20.00;40.60
37456;DHT22;23316;50.718;7.328;2023-06-14T05:43:55;20.00;40.50
37456;DHT22;23316;50.718;7.328;2023-06-14T05:46:23;20.10;40.50
37456;DHT22;23316;50.718;7.328;2023-06-14T05:48:51;20.10;40.50
37456;DHT22;23316;50.718;7.328;2023-06-14T05:51:19;20.10;40.50
37456;DHT22;23316;50.718;7.328;2023-06-14T05:53:46;20.20;40.50
37456;DHT22;23316;50.718;7.328;2023-06-14T05:56:13;20.20;40.50
37456;DHT22;23316;50.718;7.328;2023-06-14T05:58:42;20.20;40.50
37456;DHT22;23316;50.718;7.328;2023-06-14T06:01:10;20.30;40.60
37456;DHT22;23316;50.718;7.328;2023-06-14T06:03:37;20.40;40.50
37456;DHT22;23316;50.718;7.328;2023-06-14T06:06:04;20.40;40.50
37456;DHT22;23316;50.718;7.328;2023-06-14T06:08:32;20.50;40.50
37456;DHT22;23316;50.718;7.328;2023-06-14T06:11:01;20.50;40.60
37456;DHT22;23316;50.718;7.328;2023-06-14T06:13:28;20.50;40.50
37456;DHT22;23316;50.718;7.328;2023-06-14T06:15:57;20.60;40.50
37456;DHT22;23316;50.718;7.328;2023-06-14T06:18:25;20.70;40.40
37456;DHT22;23316;50.718;7.328;2023-06-14T06:20:52;20.70;40.40
37456;DHT22;23316;50.718;7.328;2023-06-14T06:23:19;20.80;40.50
37456;DHT22;23316;50.718;7.328;2023-06-14T06:25:47;20.80;40.30
37456;DHT22;23316;50.718;7.328;2023-06-14T06:28:14;20.90;39.90
37456;DHT22;23316;50.718;7.328;2023-06-14T06:30:41;20.90;39.50
37456;DHT22;23316;50.718;7.328;2023-06-14T06:33:10;21.00;39.50
37456;DHT22;23316;50.718;7.328;2023-06-14T06:35:37;21.10;39.80
37456;DHT22;23316;50.718;7.328;2023-06-14T06:38:05;21.10;39.70
37456;DHT22;23316;50.718;7.328;2023-06-14T06:40:32;21.20;39.70
37456;DHT22;23316;50.718;7.328;2023-06-14T06:42:59;21.30;39.60
37456;DHT22;23316;50.718;7.328;2023-06-14T06:45:26;21.30;39.40
37456;DHT22;23316;50.718;7.328;2023-06-14T06:47:54;21.30;39.30
37456;DHT22;23316;50.718;7.328;2023-06-14T06:50:23;21.40;39.30
37456;DHT22;23316;50.718;7.328;2023-06-14T06:52:50;21.50;39.30
37456;DHT22;23316;50.718;7.328;2023-06-14T06:55:22;21.60;39.30
37456;DHT22;23316;50.718;7.328;2023-06-14T06:57:49;21.60;39.00
37456;DHT22;23316;50.718;7.328;2023-06-14T07:00:18;21.70;39.20
37456;DHT22;23316;50.718;7.328;2023-06-14T07:02:46;21.70;39.10
37456;DHT22;23316;50.718;7.328;2023-06-14T07:05:13;21.80;38.90
37456;DHT22;23316;50.718;7.328;2023-06-14T07:07:42;21.90;38.80
37456;DHT22;23316;50.718;7.328;2023-06-14T07:10:10;21.90;39.40
37456;DHT22;23316;50.718;7.328;2023-06-14T07:12:37;22.00;38.80
37456;DHT22;23316;50.718;7.328;2023-06-14T07:15:06;22.10;38.80
37456;DHT22;23316;50.718;7.328;2023-06-14T07:17:34;22.10;38.50
37456;DHT22;23316;50.718;7.328;2023-06-14T07:20:03;22.20;38.40
37456;DHT22;23316;50.718;7.328;2023-06-14T07:22:39;22.20;38.10
37456;DHT22;23316;50.718;7.328;2023-06-14T07:25:10;22.30;38.10
37456;DHT22;23316;50.718;7.328;2023-06-14T07:27:40;22.40;37.90
37456;DHT22;23316;50.718;7.328;2023-06-14T07:30:08;22.40;37.60
37456;DHT22;23316;50.718;7.328;2023-06-14T07:32:36;22.50;37.50
37456;DHT22;23316;50.718;7.328;2023-06-14T07:35:04;22.50;37.20
37456;DHT22;23316;50.718;7.328;2023-06-14T07:37:32;22.60;37.30
37456;DHT22;23316;50.718;7.328;2023-06-14T07:39:59;22.60;37.50
37456;DHT22;23316;50.718;7.328;2023-06-14T07:42:30;22.70;37.10
37456;DHT22;23316;50.718;7.328;2023-06-14T07:44:58;22.70;36.70
37456;DHT22;23316;50.718;7.328;2023-06-14T07:47:25;22.80;36.60
37456;DHT22;23316;50.718;7.328;2023-06-14T07:49:53;22.80;36.30
37456;DHT22;23316;50.718;7.328;2023-06-14T07:52:20;22.80;36.10
37456;DHT22;23316;50.718;7.328;2023-06-14T07:54:47;22.90;36.20
37456;DHT22;23316;50.718;7.328;2023-06-14T07:57:15;22.90;35.90
37456;DHT22;23316;50.718;7.328;2023-06-14T07:59:43;23.00;36.00
37456;DHT22;23316;50.718;7.328;2023-06-14T08:02:10;23.00;35.90
37456;DHT22;23316;50.718;7.328;2023-06-14T08:04:38;23.00;35.70
37456;DHT22;23316;50.718;7.328;2023-06-14T08:07:06;23.10;35.70
37456;DHT22;23316;50.718;7.328;2023-06-14T08:09:34;23.10;35.60
37456;DHT22;23316;50.718;7.328;2023-06-14T08:12:04;23.20;35.70
37456;DHT22;23316;50.718;7.328;2023-06-14T08:14:33;23.20;35.70
37456;DHT22;23316;50.718;7.328;2023-06-14T08:17:02;23.30;35.50
37456;DHT22;23316;50.718;7.328;2023-06-14T08:19:29;23.30;35.60
37456;DHT22;23316;50.718;7.328;2023-06-14T08:21:57;23.30;35.50
37456;DHT22;23316;50.718;7.328;2023-06-14T08:24:24;23.40;35.40
37456;DHT22;23316;50.718;7.328;2023-06-14T08:26:52;23.40;35.80
37456;DHT22;23316;50.718;7.328;2023-06-14T08:29:20;23.50;35.00
37456;DHT22;23316;50.718;7.328;2023-06-14T08:31:47;23.50;35.10
37456;DHT22;23316;50.718;7.328;2023-06-14T08:34:16;23.60;34.80
37456;DHT22;23316;50.718;7.328;2023-06-14T08:36:43;23.60;34.40
37456;DHT22;23316;50.718;7.328;2023-06-14T08:39:10;23.60;33.90
37456;DHT22;23316;50.718;7.328;2023-06-14T08:41:38;23.70;33.80
37456;DHT22;23316;50.718;7.328;2023-06-14T08:44:05;23.70;33.70
37456;DHT22;23316;50.718;7.328;2023-06-14T08:46:33;23.70;33.60
37456;DHT22;23316;50.718;7.328;2023-06-14T08:49:02;23.70;33.60
37456;DHT22;23316;50.718;7.328;2023-06-14T08:51:32;23.80;33.10
37456;DHT22;23316;50.718;7.328;2023-06-14T08:54:03;23.80;32.90
37456;DHT22;23316;50.718;7.328;2023-06-14T08:56:31;23.80;32.60
37456;DHT22;23316;50.718;7.328;2023-06-14T08:59:00;23.90;32.70
37456;DHT22;23316;50.718;7.328;2023-06-14T09:01:30;23.90;32.50
37456;DHT22;23316;50.718;7.328;2023-06-14T09:03:58;24.00;32.50
37456;DHT22;23316;50.718;7.328;2023-06-14T09:06:26;24.00;32.00
37456;DHT22;23316;50.718;7.328;2023-06-14T09:08:55;24.00;32.00
37456;DHT22;23316;50.718;7.328;2023-06-14T09:11:23;24.00;31.80
37456;DHT22;23316;50.718;7.328;2023-06-14T09:13:52;24.10;31.90
37456;DHT22;23316;50.718;7.328;2023-06-14T09:16:20;24.10;32.20
37456;DHT22;23316;50.718;7.328;2023-06-14T09:18:48;24.10;32.50
37456;DHT22;23316;50.718;7.328;2023-06-14T09:21:16;24.10;32.40
37456;DHT22;23316;50.718;7.328;2023-06-14T09:23:45;24.20;32.20
37456;DHT22;23316;50.718;7.328;2023-06-14T09:26:15;24.20;32.40
37456;DHT22;23316;50.718;7.328;2023-06-14T09:28:43;24.20;32.20
37456;DHT22;23316;50.718;7.328;2023-06-14T09:31:11;24.20;32.30
37456;DHT22;23316;50.718;7.328;2023-06-14T09:33:39;24.30;32.00
37456;DHT22;23316;50.718;7.328;2023-06-14T09:36:11;24.30;31.80
37456;DHT22;23316;50.718;7.328;2023-06-14T09:38:40;24.30;31.60
37456;DHT22;23316;50.718;7.328;2023-06-14T09:41:07;24.40;31.90
37456;DHT22;23316;50.718;7.328;2023-06-14T09:43:36;24.40;32.30
37456;DHT22;23316;50.718;7.328;2023-06-14T09:46:05;24.40;32.50
37456;DHT22;23316;50.718;7.328;2023-06-14T09:48:33;24.40;32.80
37456;DHT22;23316;50.718;7.328;2023-06-14T09:51:01;24.50;32.50
37456;DHT22;23316;50.718;7.328;2023-06-14T09:53:30;24.50;33.40
37456;DHT22;23316;50.718;7.328;2023-06-14T09:55:58;24.50;32.60
37456;DHT22;23316;50.718;7.328;2023-06-14T09:58:26;24.50;32.30
37456;DHT22;23316;50.718;7.328;2023-06-14T10:00:57;24.60;32.30
37456;DHT22;23316;50.718;7.328;2023-06-14T10:03:28;24.50;32.30
37456;DHT22;23316;50.718;7.328;2023-06-14T10:05:56;24.60;32.80
37456;DHT22;23316;50.718;7.328;2023-06-14T10:08:28;24.60;32.60
37456;DHT22;23316;50.718;7.328;2023-06-14T10:10:58;24.60;32.80
37456;DHT22;23316;50.718;7.328;2023-06-14T10:13:26;24.70;32.70
37456;DHT22;23316;50.718;7.328;2023-06-14T10:16:00;24.70;32.80
37456;DHT22;23316;50.718;7.328;2023-06-14T10:18:38;24.70;32.60
37456;DHT22;23316;50.718;7.328;2023-06-14T10:21:16;24.70;32.60
37456;DHT22;23316;50.718;7.328;2023-06-14T10:23:45;24.80;32.90
37456;DHT22;23316;50.718;7.328;2023-06-14T10:26:21;24.80;32.70
37456;DHT22;23316;50.718;7.328;2023-06-14T10:28:57;24.80;32.60
37456;DHT22;23316;50.718;7.328;2023-06-14T10:31:40;24.80;31.90
37456;DHT22;23316;50.718;7.328;2023-06-14T10:34:08;24.80;32.20
37456;DHT22;23316;50.718;7.328;2023-06-14T10:36:35;24.80;32.40
37456;DHT22;23316;50.718;7.328;2023-06-14T10:39:06;24.80;32.70
37456;DHT22;23316;50.718;7.328;2023-06-14T10:41:35;24.90;31.90
37456;DHT22;23316;50.718;7.328;2023-06-14T10:44:41;24.90;31.70
37456;DHT22;23316;50.718;7.328;2023-06-14T10:47:23;24.90;31.40
37456;DHT22;23316;50.718;7.328;2023-06-14T10:49:52;24.90;31.00
37456;DHT22;23316;50.718;7.328;2023-06-14T10:52:23;24.90;31.20
37456;DHT22;23316;50.718;7.328;2023-06-14T10:55:01;24.90;31.10
37456;DHT22;23316;50.718;7.328;2023-06-14T10:57:30;24.90;31.30
37456;DHT22;23316;50.718;7.328;2023-06-14T10:59:58;24.90;31.30
37456;DHT22;23316;50.718;7.328;2023-06-14T11:02:51;25.00;31.20
37456;DHT22;23316;50.718;7.328;2023-06-14T11:05:24;25.00;31.10
37456;DHT22;23316;50.718;7.328;2023-06-14T11:08:04;25.00;31.00
37456;DHT22;23316;50.718;7.328;2023-06-14T11:10:38;25.00;30.60
37456;DHT22;23316;50.718;7.328;2023-06-14T11:13:06;25.00;30.60
37456;DHT22;23316;50.718;7.328;2023-06-14T11:15:35;25.00;30.40
37456;DHT22;23316;50.718;7.328;2023-06-14T11:18:06;25.00;30.50
37456;DHT22;23316;50.718;7.328;2023-06-14T11:20:35;25.00;30.60
37456;DHT22;23316;50.718;7.328;2023-06-14T11:23:03;25.10;30.70
37456;DHT22;23316;50.718;7.328;2023-06-14T11:25:31;25.10;30.60
37456;DHT22;23316;50.718;7.328;2023-06-14T11:27:59;25.10;31.00
37456;DHT22;23316;50.718;7.328;2023-06-14T11:30:27;25.20;31.00
37456;DHT22;23316;50.718;7.328;2023-06-14T11:32:55;25.20;30.70
37456;DHT22;23316;50.718;7.328;2023-06-14T11:35:24;25.20;30.60
37456;DHT22;23316;50.718;7.328;2023-06-14T11:37:53;25.20;30.40
37456;DHT22;23316;50.718;7.328;2023-06-14T11:40:23;25.20;30.30
37456;DHT22;23316;50.718;7.328;2023-06-14T11:42:59;25.20;30.30
37456;DHT22;23316;50.718;7.328;2023-06-14T11:45:28;25.20;30.40
37456;DHT22;23316;50.718;7.328;2023-06-14T11:47:57;25.20;30.60
37456;DHT22;23316;50.718;7.328;2023-06-14T11:50:28;25.20;30.70
37456;DHT22;23316;50.718;7.328;2023-06-14T11:52:57;25.30;30.40
37456;DHT22;23316;50.718;7.328;2023-06-14T11:55:28;25.20;30.40
37456;DHT22;23316;50.718;7.328;2023-06-14T11:57:56;25.20;30.40
37456;DHT22;23316;50.718;7.328;2023-06-14T12:00:25;25.30;30.70
37456;DHT22;23316;50.718;7.328;2023-06-14T12:02:53;25.30;30.70
37456;DHT22;23316;50.718;7.328;2023-06-14T12:05:22;25.30;30.70
37456;DHT22;23316;50.718;7.328;2023-06-14T12:07:58;25.30;30.70
37456;DHT22;23316;50.718;7.328;2023-06-14T12:10:26;25.30;30.70
37456;DHT22;23316;50.718;7.328;2023-06-14T12:12:57;25.40;30.80
37456;DHT22;23316;50.718;7.328;2023-06-14T12:15:28;25.40;30.80
37456;DHT22;23316;50.718;7.328;2023-06-14T12:17:56;25.40;31.10
37456;DHT22;23316;50.718;7.328;2023-06-14T12:20:29;25.40;31.10
37456;DHT22;23316;50.718;7.328;2023-06-14T12:22:59;25.40;31.00
37456;DHT22;23316;50.718;7.328;2023-06-14T12:25:30;25.40;31.10
37456;DHT22;23316;50.718;7.328;2023-06-14T12:27:58;25.40;31.20
37456;DHT22;23316;50.718;7.328;2023-06-14T12:30:26;25.40;30.80
37456;DHT22;23316;50.718;7.328;2023-06-14T12:32:53;25.40;30.80
37456;DHT22;23316;50.718;7.328;2023-06-14T12:35:20;25.40;30.70
37456;DHT22;23316;50.718;7.328;2023-06-14T12:37:48;25.40;30.80
37456;DHT22;23316;50.718;7.328;2023-06-14T12:40:16;25.40;30.80
37456;DHT22;23316;50.718;7.328;2023-06-14T12:42:45;25.40;31.10
37456;DHT22;23316;50.718;7.328;2023-06-14T12:45:13;25.40;30.80
37456;DHT22;23316;50.718;7.328;2023-06-14T12:47:40;25.50;30.70
37456;DHT22;23316;50.718;7.328;2023-06-14T12:50:08;25.50;30.30
37456;DHT22;23316;50.718;7.328;2023-06-14T12:52:35;25.50;30.20
37456;DHT22;23316;50.718;7.328;2023-06-14T12:55:03;25.40;30.30
37456;DHT22;23316;50.718;7.328;2023-06-14T12:57:32;25.40;30.50
37456;DHT22;23316;50.718;7.328;2023-06-14T13:00:03;25.40;30.30
37456;DHT22;23316;50.718;7.328;2023-06-14T13:02:31;25.50;30.40
37456;DHT22;23316;50.718;7.328;2023-06-14T13:04:59;25.40;30.30
37456;DHT22;23316;50.718;7.328;2023-06-14T13:07:29;25.40;30.50
37456;DHT22;23316;50.718;7.328;2023-06-14T13:09:56;25.40;30.80
37456;DHT22;23316;50.718;7.328;2023-06-14T13:12:24;25.50;31.50
37456;DHT22;23316;50.718;7.328;2023-06-14T13:14:53;25.40;30.50
37456;DHT22;23316;50.718;7.328;2023-06-14T13:17:20;25.50;30.30
37456;DHT22;23316;50.718;7.328;2023-06-14T13:19:47;25.50;30.20
37456;DHT22;23316;50.718;7.328;2023-06-14T13:22:14;25.40;30.10
37456;DHT22;23316;50.718;7.328;2023-06-14T13:24:42;25.40;30.30
37456;DHT22;23316;50.718;7.328;2023-06-14T13:27:09;25.50;30.40
37456;DHT22;23316;50.718;7.328;2023-06-14T13:29:36;25.50;30.40
37456;DHT22;23316;50.718;7.328;2023-06-14T13:32:06;25.40;30.30
37456;DHT22;23316;50.718;7.328;2023-06-14T13:34:34;25.50;30.20
37456;DHT22;23316;50.718;7.328;2023-06-14T13:37:01;25.50;30.30
37456;DHT22;23316;50.718;7.328;2023-06-14T13:39:28;25.50;30.40
37456;DHT22;23316;50.718;7.328;2023-06-14T13:41:56;25.50;30.50
37456;DHT22;23316;50.718;7.328;2023-06-14T13:44:23;25.50;30.40
37456;DHT22;23316;50.718;7.328;2023-06-14T13:46:51;25.50;30.30
37456;DHT22;23316;50.718;7.328;2023-06-14T13:49:20;25.60;30.40
37456;DHT22;23316;50.718;7.328;2023-06-14T13:51:48;25.60;30.50
37456;DHT22;23316;50.718;7.328;2023-06-14T13:54:18;25.60;30.50
37456;DHT22;23316;50.718;7.328;2023-06-14T13:56:46;25.60;30.60
37456;DHT22;23316;50.718;7.328;2023-06-14T13:59:13;25.60;30.50
37456;DHT22;23316;50.718;7.328;2023-06-14T14:01:42;25.60;30.30
37456;DHT22;23316;50.718;7.328;2023-06-14T14:04:09;25.60;30.40
37456;DHT22;23316;50.718;7.328;2023-06-14T14:06:38;25.60;30.40
37456;DHT22;23316;50.718;7.328;2023-06-14T14:09:07;25.60;30.40
37456;DHT22;23316;50.718;7.328;2023-06-14T14:11:35;25.60;30.50
37456;DHT22;23316;50.718;7.328;2023-06-14T14:14:02;25.60;30.50
37456;DHT22;23316;50.718;7.328;2023-06-14T14:16:30;25.70;30.60
37456;DHT22;23316;50.718;7.328;2023-06-14T14:18:58;25.70;30.60
37456;DHT22;23316;50.718;7.328;2023-06-14T14:21:25;25.70;30.80
37456;DHT22;23316;50.718;7.328;2023-06-14T14:23:54;25.80;30.80
37456;DHT22;23316;50.718;7.328;2023-06-14T14:26:21;25.70;30.60
37456;DHT22;23316;50.718;7.328;2023-06-14T14:28:49;25.80;30.80
37456;DHT22;23316;50.718;7.328;2023-06-14T14:31:16;25.80;30.60
37456;DHT22;23316;50.718;7.328;2023-06-14T14:33:44;25.80;30.00
37456;DHT22;23316;50.718;7.328;2023-06-14T14:36:11;25.80;29.90
37456;DHT22;23316;50.718;7.328;2023-06-14T14:38:39;25.80;29.90
37456;DHT22;23316;50.718;7.328;2023-06-14T14:41:08;25.80;30.00
37456;DHT22;23316;50.718;7.328;2023-06-14T14:43:35;25.80;30.20
37456;DHT22;23316;50.718;7.328;2023-06-14T14:46:02;25.80;30.40
37456;DHT22;23316;50.718;7.328;2023-06-14T14:48:30;25.80;30.00
37456;DHT22;23316;50.718;7.328;2023-06-14T14:50:57;25.80;30.10
37456;DHT22;23316;50.718;7.328;2023-06-14T14:53:24;25.80;30.00
37456;DHT22;23316;50.718;7.328;2023-06-14T14:55:51;25.80;30.30
37456;DHT22;23316;50.718;7.328;2023-06-14T14:58:20;25.80;30.40
37456;DHT22;23316;50.718;7.328;2023-06-14T15:00:47;25.80;31.00
37456;DHT22;23316;50.718;7.328;2023-06-14T15:03:15;25.90;30.70
37456;DHT22;23316;50.718;7.328;2023-06-14T15:05:42;25.90;30.40
37456;DHT22;23316;50.718;7.328;2023-06-14T15:08:09;25.90;30.10
37456;DHT22;23316;50.718;7.328;2023-06-14T15:10:38;25.90;30.00
37456;DHT22;23316;50.718;7.328;2023-06-14T15:13:07;25.90;30.00
37456;DHT22;23316;50.718;7.328;2023-06-14T15:15:36;25.90;29.70
37456;DHT22;23316;50.718;7.328;2023-06-14T15:18:04;25.90;29.60
37456;DHT22;23316;50.718;7.328;2023-06-14T15:20:31;25.80;29.60
37456;DHT22;23316;50.718;7.328;2023-06-14T15:22:58;25.80;29.80
37456;DHT22;23316;50.718;7.328;2023-06-14T15:25:26;25.80;29.90
37456;DHT22;23316;50.718;7.328;2023-06-14T15:27:53;25.80;30.00
37456;DHT22;23316;50.718;7.328;2023-06-14T15:30:21;25.80;30.00
37456;DHT22;23316;50.718;7.328;2023-06-14T15:32:50;25.80;30.00
37456;DHT22;23316;50.718;7.328;2023-06-14T15:35:17;25.80;29.70
37456;DHT22;23316;50.718;7.328;2023-06-14T15:37:48;25.80;29.80
37456;DHT22;23316;50.718;7.328;2023-06-14T15:40:15;25.80;29.90